createdAt,value
2023-11-18T00:01:33.466Z,140.13
2023-11-18T00:04:00.267Z,46.85
2023-11-18T00:06:26.790Z,96.25
2023-11-18T00:08:53.290Z,68.00
2023-11-18T00:11:19.775Z,66.93
2023-11-18T00:13:46.280Z,71.90
2023-11-18T00:16:12.803Z,131.98
2023-11-18T00:18:43.214Z,91.25
2023-11-18T00:21:09.823Z,92.40
2023-11-18T00:23:36.370Z,115.22
2023-11-18T00:26:03.610Z,42.47
2023-11-18T00:28:30.384Z,123.88
2023-11-18T00:30:56.903Z,94.35
2023-11-18T00:33:23.557Z,31.25
2023-11-18T00:35:50.216Z,59.35
2023-11-18T00:38:16.667Z,59.22
2023-11-18T00:40:43.136Z,125.72
2023-11-18T00:43:09.962Z,85.22
2023-11-18T00:45:36.424Z,86.32
2023-11-18T00:48:02.902Z,87.93
2023-11-18T00:50:29.481Z,55.53
2023-11-18T00:52:56.038Z,141.13
2023-11-18T00:55:22.682Z,74.97
2023-11-18T00:57:49.157Z,77.00
2023-11-18T01:00:16.542Z,56.22
2023-11-18T01:02:44.437Z,69.80
2023-11-18T01:05:11.045Z,93.93
2023-11-18T01:07:38.891Z,134.20
2023-11-18T01:10:06.876Z,118.35
2023-11-18T01:12:33.543Z,99.75
2023-11-18T01:15:00.382Z,136.18
2023-11-18T01:17:26.913Z,54.70
2023-11-18T01:19:53.428Z,175.32
2023-11-18T01:22:20.457Z,47.42
2023-11-18T01:24:46.939Z,45.25
2023-11-18T01:27:14.297Z,53.90
2023-11-18T01:29:40.844Z,90.72
2023-11-18T01:32:07.780Z,82.03
2023-11-18T01:34:34.278Z,128.05
2023-11-18T01:37:00.914Z,101.45
2023-11-18T01:39:27.360Z,104.78
2023-11-18T01:41:54.003Z,64.53
2023-11-18T01:44:20.452Z,35.50
2023-11-18T01:46:47.239Z,51.38
2023-11-18T01:49:15.627Z,35.05
2023-11-18T01:51:44.867Z,45.35
2023-11-18T01:54:13.492Z,63.58
2023-11-18T01:56:40.142Z,71.18
2023-11-18T01:59:07.071Z,79.25
2023-11-18T02:01:34.341Z,45.42
2023-11-18T02:04:01.129Z,68.60
2023-11-18T02:06:28.376Z,61.00
2023-11-18T02:08:55.047Z,62.45
2023-11-18T02:11:37.062Z,35.65
2023-11-18T02:14:05.159Z,75.55
2023-11-18T02:16:33.081Z,32.20
2023-11-18T02:19:00.968Z,36.05
2023-11-18T02:21:28.148Z,30.67
2023-11-18T02:23:54.608Z,29.60
2023-11-18T02:26:24.811Z,52.20
2023-11-18T02:28:51.610Z,144.05
2023-11-18T02:31:25.727Z,113.40
2023-11-18T02:34:06.626Z,49.65
2023-11-18T02:36:37.591Z,53.97
2023-11-18T02:39:06.945Z,23.38
2023-11-18T02:41:34.813Z,41.30
2023-11-18T02:44:03.482Z,38.53
2023-11-18T02:46:30.311Z,47.67
2023-11-18T02:48:56.789Z,46.75
2023-11-18T02:51:24.214Z,42.13
2023-11-18T02:53:50.691Z,27.13
2023-11-18T02:56:17.154Z,38.97
2023-11-18T02:58:43.832Z,26.30
2023-11-18T03:01:10.320Z,33.47
2023-11-18T03:03:37.097Z,27.85
2023-11-18T03:06:03.820Z,24.48
2023-11-18T03:08:30.287Z,27.17
2023-11-18T03:10:57.330Z,21.75
2023-11-18T03:13:23.889Z,23.17
2023-11-18T03:15:52.070Z,23.45
2023-11-18T03:18:18.649Z,32.17
2023-11-18T03:20:45.161Z,31.05
2023-11-18T03:23:11.617Z,32.15
2023-11-18T03:25:38.186Z,34.53
2023-11-18T03:28:04.730Z,30.35
2023-11-18T03:30:31.235Z,35.55
2023-11-18T03:32:57.760Z,30.10
2023-11-18T03:35:24.429Z,25.23
2023-11-18T03:37:51.362Z,29.17
2023-11-18T03:40:17.821Z,27.25
2023-11-18T03:42:44.740Z,28.25
2023-11-18T03:45:11.625Z,22.77
2023-11-18T03:47:38.902Z,22.45
2023-11-18T03:50:05.903Z,23.77
2023-11-18T03:52:32.525Z,20.10
2023-11-18T03:54:59.044Z,21.00
2023-11-18T03:57:25.488Z,21.30
2023-11-18T03:59:51.969Z,17.30
2023-11-18T04:02:18.421Z,20.70
2023-11-18T04:04:45.886Z,19.67
2023-11-18T04:07:12.416Z,18.30
2023-11-18T04:09:38.924Z,22.75
2023-11-18T04:12:05.809Z,19.48
2023-11-18T04:14:32.255Z,22.20
2023-11-18T04:16:58.817Z,19.70
2023-11-18T04:19:25.499Z,22.13
2023-11-18T04:21:51.948Z,22.52
2023-11-18T04:24:18.431Z,17.80
2023-11-18T04:26:44.908Z,21.35
2023-11-18T04:29:11.521Z,23.25
2023-11-18T04:31:38.276Z,20.13
2023-11-18T04:34:04.943Z,19.80
2023-11-18T04:36:31.497Z,32.28
2023-11-18T04:39:01.224Z,39.95
2023-11-18T04:41:27.855Z,27.38
2023-11-18T04:43:54.361Z,26.88
2023-11-18T04:46:20.889Z,33.83
2023-11-18T04:48:48.467Z,26.60
2023-11-18T04:51:15.004Z,8.95
2023-11-18T04:53:41.501Z,35.05
2023-11-18T04:56:08.455Z,24.40
2023-11-18T04:58:34.903Z,29.00
2023-11-18T05:01:01.393Z,30.33
2023-11-18T05:03:27.948Z,38.42
2023-11-18T05:05:57.745Z,22.58
2023-11-18T05:08:25.090Z,23.70
2023-11-18T05:10:51.924Z,20.17
2023-11-18T05:13:19.279Z,22.50
2023-11-18T05:15:46.662Z,20.25
2023-11-18T05:18:15.122Z,15.80
2023-11-18T05:20:42.360Z,20.67
2023-11-18T05:23:09.524Z,21.90
2023-11-18T05:25:35.996Z,19.35
2023-11-18T05:28:02.504Z,18.10
2023-11-18T05:30:28.989Z,29.88
2023-11-18T05:32:56.377Z,16.55
2023-11-18T05:35:22.876Z,14.65
2023-11-18T05:37:49.342Z,13.38
2023-11-18T05:40:15.884Z,22.02
2023-11-18T05:42:42.386Z,24.00
2023-11-18T05:45:09.240Z,23.70
2023-11-18T05:47:35.770Z,24.10
2023-11-18T05:50:02.366Z,24.38
2023-11-18T05:52:28.879Z,20.23
2023-11-18T05:54:55.719Z,25.13
2023-11-18T05:57:22.194Z,20.92
2023-11-18T05:59:49.046Z,15.23
2023-11-18T06:02:15.638Z,23.08
2023-11-18T06:04:42.123Z,11.27
2023-11-18T06:07:08.680Z,17.80
2023-11-18T06:09:35.580Z,20.02
2023-11-18T06:12:02.048Z,18.70
2023-11-18T06:14:28.777Z,19.15
2023-11-18T06:16:55.362Z,20.52
2023-11-18T06:19:21.921Z,20.52
2023-11-18T06:21:48.416Z,45.08
2023-11-18T06:24:14.896Z,26.63
2023-11-18T06:26:41.474Z,23.85
2023-11-18T06:29:08.065Z,27.58
2023-11-18T06:31:34.595Z,26.70
2023-11-18T06:34:01.111Z,30.10
2023-11-18T06:36:27.743Z,28.63
2023-11-18T06:38:55.087Z,30.55
2023-11-18T06:41:23.443Z,45.63
2023-11-18T06:43:50.837Z,21.33
2023-11-18T06:46:17.281Z,26.02
2023-11-18T06:48:43.832Z,21.33
2023-11-18T06:51:10.513Z,18.92
2023-11-18T06:53:36.974Z,20.95
2023-11-18T06:56:03.692Z,21.73
2023-11-18T06:58:30.607Z,13.95
2023-11-18T07:00:57.079Z,15.07
2023-11-18T07:03:23.766Z,20.00
2023-11-18T07:05:50.436Z,23.27
2023-11-18T07:08:16.991Z,19.27
2023-11-18T07:10:43.556Z,23.25
2023-11-18T07:13:10.058Z,19.55
2023-11-18T07:15:36.536Z,19.02
2023-11-18T07:18:03.338Z,11.70
2023-11-18T07:20:30.123Z,18.92
2023-11-18T07:22:56.638Z,13.75
2023-11-18T07:25:23.092Z,14.52
2023-11-18T07:27:49.616Z,21.73
2023-11-18T07:30:16.562Z,18.55
2023-11-18T07:32:43.057Z,19.08
2023-11-18T07:35:09.631Z,21.02
2023-11-18T07:37:37.077Z,37.70
2023-11-18T07:40:05.690Z,17.73
2023-11-18T07:42:32.868Z,20.98
2023-11-18T07:44:59.297Z,14.07
2023-11-18T07:47:25.764Z,19.73
2023-11-18T07:49:55.077Z,21.50
2023-11-18T07:52:21.601Z,8.07
2023-11-18T07:54:49.174Z,19.63
2023-11-18T07:57:16.702Z,9.98
2023-11-18T07:59:43.143Z,19.80
2023-11-18T08:02:09.659Z,19.60
2023-11-18T08:04:36.138Z,15.88
2023-11-18T08:07:02.759Z,17.00
2023-11-18T08:09:29.451Z,17.88
2023-11-18T08:11:56.923Z,20.60
2023-11-18T08:14:23.735Z,20.10
2023-11-18T08:16:50.410Z,19.83
2023-11-18T08:19:17.055Z,23.00
2023-11-18T08:21:43.511Z,24.45
2023-11-18T08:24:10.255Z,12.02
2023-11-18T08:26:36.915Z,13.07
2023-11-18T08:29:03.577Z,18.45
2023-11-18T08:31:30.199Z,23.20
2023-11-18T08:33:56.638Z,14.93
2023-11-18T08:36:24.025Z,19.05
2023-11-18T08:38:50.491Z,20.52
2023-11-18T08:41:17.023Z,24.95
2023-11-18T08:43:43.537Z,20.52
2023-11-18T08:46:12.420Z,19.85
2023-11-18T08:48:38.872Z,18.17
2023-11-18T08:51:05.850Z,16.60
2023-11-18T08:53:32.258Z,9.38
2023-11-18T08:55:58.778Z,18.67
2023-11-18T08:58:27.336Z,13.32
2023-11-18T09:00:57.490Z,16.45
2023-11-18T09:03:25.302Z,19.30
2023-11-18T09:05:56.001Z,16.13
2023-11-18T09:08:22.438Z,11.30
2023-11-18T09:10:48.897Z,15.75
2023-11-18T09:13:15.308Z,22.85
2023-11-18T09:15:41.779Z,15.32
2023-11-18T09:18:08.406Z,15.52
2023-11-18T09:20:34.908Z,13.30
2023-11-18T09:23:03.827Z,13.32
2023-11-18T09:25:30.637Z,13.27
2023-11-18T09:27:57.097Z,13.20
2023-11-18T09:30:23.592Z,13.65
2023-11-18T09:32:50.164Z,12.68
2023-11-18T09:35:16.668Z,11.50
2023-11-18T09:37:43.206Z,10.05
2023-11-18T09:40:14.912Z,14.93
2023-11-18T09:42:41.960Z,16.08
2023-11-18T09:45:08.712Z,13.88
2023-11-18T09:47:42.912Z,16.10
2023-11-18T09:50:11.879Z,12.18
2023-11-18T09:52:48.181Z,9.85
2023-11-18T09:55:34.077Z,10.70
2023-11-18T09:58:05.318Z,12.23
2023-11-18T10:00:32.126Z,8.75
2023-11-18T10:02:59.027Z,12.13
2023-11-18T10:05:28.720Z,5.72
2023-11-18T10:07:55.604Z,12.90
2023-11-18T10:10:22.385Z,12.75
2023-11-18T10:12:51.083Z,10.00
2023-11-18T10:15:19.058Z,14.30
2023-11-18T10:17:46.626Z,16.55
2023-11-18T10:20:13.181Z,10.10
2023-11-18T10:22:39.636Z,14.43
2023-11-18T10:25:06.407Z,13.57
2023-11-18T10:27:33.160Z,6.97
2023-11-18T10:30:04.134Z,12.57
2023-11-18T10:32:31.302Z,11.07
2023-11-18T10:34:58.522Z,7.20
2023-11-18T10:37:28.901Z,9.30
2023-11-18T10:39:55.350Z,8.18
2023-11-18T10:42:22.267Z,7.32
2023-11-18T10:44:58.874Z,7.90
2023-11-18T10:47:29.278Z,13.00
2023-11-18T10:49:56.239Z,7.80
2023-11-18T10:52:24.108Z,12.32
2023-11-18T10:54:54.084Z,10.00
2023-11-18T10:57:21.233Z,10.10
2023-11-18T11:00:05.606Z,9.07
2023-11-18T11:02:32.293Z,12.68
2023-11-18T11:04:58.748Z,11.10
2023-11-18T11:07:27.159Z,9.88
2023-11-18T11:09:53.609Z,13.55
2023-11-18T11:12:20.726Z,12.63
2023-11-18T11:15:00.336Z,8.57
2023-11-18T11:17:28.914Z,11.73
2023-11-18T11:20:03.865Z,11.52
2023-11-18T11:22:39.609Z,22.20
2023-11-18T11:25:34.113Z,10.75
2023-11-18T11:28:11.686Z,12.82
2023-11-18T11:30:56.203Z,10.40
2023-11-18T11:33:30.181Z,10.13
2023-11-18T11:35:57.700Z,12.57
2023-11-18T11:38:25.823Z,9.95
2023-11-18T11:40:52.824Z,11.10
2023-11-18T11:43:19.313Z,12.05
2023-11-18T11:45:46.182Z,6.63
2023-11-18T11:48:13.093Z,11.30
2023-11-18T11:50:54.568Z,13.95
2023-11-18T11:53:27.882Z,9.60
2023-11-18T11:55:55.875Z,12.05
2023-11-18T11:58:32.461Z,14.77
2023-11-18T12:01:02.902Z,13.93
2023-11-18T12:03:32.091Z,10.65
2023-11-18T12:05:58.729Z,13.48
2023-11-18T12:08:25.236Z,7.47
2023-11-18T12:10:54.614Z,8.77
2023-11-18T12:13:21.377Z,13.60
2023-11-18T12:15:56.203Z,12.25
2023-11-18T12:18:23.198Z,8.18
2023-11-18T12:20:49.861Z,5.45
2023-11-18T12:23:16.978Z,6.85
2023-11-18T12:25:46.850Z,11.13
2023-11-18T12:28:17.844Z,6.60
2023-11-18T12:30:45.765Z,7.38
2023-11-18T12:33:12.368Z,9.25
2023-11-18T12:35:47.053Z,10.15
2023-11-18T12:38:51.231Z,10.63
2023-11-18T12:41:37.496Z,10.85
2023-11-18T12:44:22.119Z,7.20
2023-11-18T12:46:53.929Z,11.23
2023-11-18T12:49:23.720Z,7.75
2023-11-18T12:51:55.114Z,7.72
2023-11-18T12:54:25.124Z,10.75
2023-11-18T12:56:52.697Z,7.43
2023-11-18T12:59:19.298Z,9.35
2023-11-18T13:01:48.196Z,8.60
2023-11-18T13:04:15.336Z,8.27
2023-11-18T13:06:41.999Z,8.82
2023-11-18T13:09:08.866Z,11.57
2023-11-18T13:11:35.356Z,12.10
2023-11-18T13:14:02.705Z,14.05
2023-11-18T13:16:29.497Z,9.70
2023-11-18T13:18:56.404Z,10.52
2023-11-18T13:21:22.999Z,11.25
2023-11-18T13:23:52.502Z,13.75
2023-11-18T13:26:20.641Z,9.75
2023-11-18T13:28:50.021Z,12.35
2023-11-18T13:31:22.958Z,12.07
2023-11-18T13:33:59.538Z,9.35
2023-11-18T13:36:33.342Z,9.05
2023-11-18T13:38:59.871Z,12.52
2023-11-18T13:41:32.566Z,17.35
2023-11-18T13:44:00.531Z,10.40
2023-11-18T13:46:28.974Z,8.90
2023-11-18T13:48:55.476Z,9.88
2023-11-18T13:51:22.498Z,11.23
2023-11-18T13:53:49.043Z,8.00
2023-11-18T13:56:15.829Z,14.07
2023-11-18T13:58:45.462Z,14.50
2023-11-18T14:01:12.543Z,11.38
2023-11-18T14:03:41.028Z,17.27
2023-11-18T14:06:08.737Z,11.95
2023-11-18T14:08:35.535Z,10.82
2023-11-18T14:11:03.697Z,12.98
2023-11-18T14:13:31.432Z,13.52
2023-11-18T14:16:00.946Z,13.00
2023-11-18T14:18:27.861Z,18.17
2023-11-18T14:20:54.923Z,11.80
2023-11-18T14:23:21.782Z,9.32
2023-11-18T14:25:48.872Z,11.13
2023-11-18T14:28:15.999Z,6.50
2023-11-18T14:30:42.491Z,7.78
2023-11-18T14:33:09.216Z,6.22
2023-11-18T14:35:36.054Z,9.35
2023-11-18T14:38:03.501Z,9.63
2023-11-18T14:40:30.219Z,9.80
2023-11-18T14:42:56.806Z,6.20
2023-11-18T14:45:23.705Z,8.45
2023-11-18T14:47:50.325Z,6.57
2023-11-18T14:50:23.899Z,8.15
2023-11-18T14:52:51.752Z,6.00
2023-11-18T14:55:18.943Z,6.95
2023-11-18T14:57:45.954Z,8.25
2023-11-18T15:00:13.511Z,5.65
2023-11-18T15:02:40.220Z,7.82
2023-11-18T15:05:07.117Z,6.20
2023-11-18T15:07:33.688Z,4.28
2023-11-18T15:10:00.212Z,10.18
2023-11-18T15:12:26.829Z,4.72
2023-11-18T15:14:53.345Z,4.40
2023-11-18T15:17:19.774Z,4.93
2023-11-18T15:19:46.205Z,5.55
2023-11-18T15:22:12.715Z,4.53
2023-11-18T15:24:39.209Z,3.85
2023-11-18T15:27:05.732Z,6.50
2023-11-18T15:29:32.363Z,3.85
2023-11-18T15:31:58.982Z,7.32
2023-11-18T15:34:25.480Z,4.38
2023-11-18T15:36:52.538Z,5.45
2023-11-18T15:39:19.033Z,4.15
2023-11-18T15:41:45.455Z,4.25
2023-11-18T15:44:11.932Z,5.18
2023-11-18T15:46:38.832Z,3.28
2023-11-18T15:49:05.334Z,3.03
2023-11-18T15:51:31.747Z,2.33
2023-11-18T15:53:58.249Z,3.80
2023-11-18T15:56:24.689Z,4.28
2023-11-18T15:58:51.779Z,3.40
2023-11-18T16:01:18.308Z,5.53
2023-11-18T16:03:44.857Z,3.72
2023-11-18T16:06:11.311Z,7.05
2023-11-18T16:08:38.262Z,4.32
2023-11-18T16:11:05.353Z,3.53
2023-11-18T16:13:31.865Z,3.63
2023-11-18T16:15:58.346Z,7.38
2023-11-18T16:18:24.866Z,4.22
2023-11-18T16:20:51.477Z,3.83
2023-11-18T16:23:18.047Z,3.67
2023-11-18T16:25:44.619Z,4.22
2023-11-18T16:28:11.260Z,3.13
2023-11-18T16:30:37.743Z,3.05
2023-11-18T16:33:04.241Z,3.20
2023-11-18T16:35:31.299Z,3.95
2023-11-18T16:37:58.298Z,3.53
2023-11-18T16:40:25.320Z,3.60
2023-11-18T16:42:53.644Z,2.05
2023-11-18T16:45:20.340Z,3.38
2023-11-18T16:47:46.959Z,5.25
2023-11-18T16:50:15.181Z,5.82
2023-11-18T16:52:41.825Z,3.35
2023-11-18T16:55:10.214Z,5.88
2023-11-18T16:57:37.998Z,6.85
2023-11-18T17:00:12.303Z,4.28
2023-11-18T17:02:38.885Z,3.88
2023-11-18T17:05:05.714Z,4.18
2023-11-18T17:07:32.188Z,3.00
2023-11-18T17:09:58.631Z,4.85
2023-11-18T17:12:25.139Z,7.30
2023-11-18T17:14:51.610Z,5.55
2023-11-18T17:17:18.129Z,5.25
2023-11-18T17:19:44.672Z,3.05
2023-11-18T17:22:11.229Z,4.20
2023-11-18T17:24:40.615Z,5.97
2023-11-18T17:27:07.137Z,4.25
2023-11-18T17:29:34.340Z,4.28
2023-11-18T17:32:00.837Z,1.80
2023-11-18T17:34:27.347Z,4.47
2023-11-18T17:36:56.395Z,5.20
2023-11-18T17:39:23.048Z,3.03
2023-11-18T17:41:49.701Z,5.63
2023-11-18T17:44:16.216Z,2.25
2023-11-18T17:46:42.697Z,2.50
2023-11-18T17:49:09.200Z,4.82
2023-11-18T17:51:35.831Z,4.40
2023-11-18T17:54:02.404Z,4.15
2023-11-18T17:56:29.002Z,2.90
2023-11-18T17:58:55.482Z,2.90
2023-11-18T18:01:24.523Z,3.90
2023-11-18T18:03:51.127Z,4.60
2023-11-18T18:06:17.650Z,5.13
2023-11-18T18:08:44.095Z,6.90
2023-11-18T18:11:10.576Z,8.70
2023-11-18T18:13:37.072Z,3.90
2023-11-18T18:16:04.035Z,5.35
2023-11-18T18:18:30.869Z,4.18
2023-11-18T18:20:57.336Z,5.00
2023-11-18T18:23:23.808Z,3.60
2023-11-18T18:25:50.605Z,4.55
2023-11-18T18:28:17.049Z,6.00
2023-11-18T18:30:43.668Z,4.25
2023-11-18T18:33:10.194Z,4.15
2023-11-18T18:35:36.790Z,5.28
2023-11-18T18:38:03.637Z,4.10
2023-11-18T18:40:32.603Z,4.72
2023-11-18T18:43:00.188Z,4.00
2023-11-18T18:45:26.659Z,2.53
2023-11-18T18:47:53.565Z,3.17
2023-11-18T18:50:20.835Z,3.95
2023-11-18T18:52:47.339Z,4.65
2023-11-18T18:55:13.950Z,5.47
2023-11-18T18:57:40.872Z,2.17
2023-11-18T19:00:08.180Z,3.85
2023-11-18T19:02:34.838Z,2.60
2023-11-18T19:05:01.603Z,4.32
2023-11-18T19:07:28.052Z,2.67
2023-11-18T19:09:54.540Z,3.35
2023-11-18T19:12:21.013Z,2.90
2023-11-18T19:14:47.472Z,2.22
2023-11-18T19:17:13.944Z,4.63
2023-11-18T19:19:40.437Z,6.43
2023-11-18T19:22:06.962Z,5.88
2023-11-18T19:24:33.657Z,4.40
2023-11-18T19:27:00.255Z,2.95
2023-11-18T19:29:27.192Z,4.90
2023-11-18T19:31:53.686Z,3.67
2023-11-18T19:34:20.294Z,5.38
2023-11-18T19:36:46.767Z,3.28
2023-11-18T19:39:13.541Z,2.47
2023-11-18T19:41:40.055Z,2.10
2023-11-18T19:44:06.728Z,3.17
2023-11-18T19:46:33.233Z,0.77
2023-11-18T19:49:00.467Z,1.48
2023-11-18T19:51:26.978Z,3.10
2023-11-18T19:53:53.539Z,1.90
2023-11-18T19:56:20.110Z,2.55
2023-11-18T19:58:46.641Z,1.48
2023-11-18T20:01:19.285Z,1.15
2023-11-18T20:03:48.938Z,1.10
2023-11-18T20:06:15.475Z,1.00
2023-11-18T20:08:42.745Z,0.55
2023-11-18T20:11:09.419Z,0.38
2023-11-18T20:13:36.421Z,1.00
2023-11-18T20:16:03.069Z,1.83
2023-11-18T20:18:29.588Z,2.45
2023-11-18T20:20:56.085Z,1.23
2023-11-18T20:23:22.684Z,1.10
2023-11-18T20:25:49.466Z,2.13
2023-11-18T20:28:15.954Z,1.25
2023-11-18T20:30:42.511Z,1.48
2023-11-18T20:33:09.011Z,1.42
2023-11-18T20:35:35.751Z,1.10
2023-11-18T20:38:02.452Z,2.63
2023-11-18T20:40:29.732Z,2.70
2023-11-18T20:42:56.221Z,4.22
2023-11-18T20:45:22.809Z,0.55
2023-11-18T20:47:49.724Z,0.32
2023-11-18T20:50:16.558Z,0.55
2023-11-18T20:52:43.386Z,1.60
2023-11-18T20:55:10.540Z,0.60
2023-11-18T20:57:37.815Z,1.75
2023-11-18T21:00:09.087Z,1.10
2023-11-18T21:02:43.328Z,3.17
2023-11-18T21:05:12.040Z,1.75
2023-11-18T21:07:38.651Z,1.75
2023-11-18T21:10:05.636Z,1.48
2023-11-18T21:12:32.262Z,1.70
2023-11-18T21:14:58.774Z,2.03
2023-11-18T21:17:25.829Z,2.53
2023-11-18T21:19:53.341Z,3.13
2023-11-18T21:22:20.705Z,1.85
2023-11-18T21:24:47.542Z,1.10
2023-11-18T21:27:14.004Z,1.70
2023-11-18T21:29:40.458Z,2.03
2023-11-18T21:32:07.344Z,3.17
2023-11-18T21:34:33.976Z,5.43
2023-11-18T21:37:00.419Z,2.03
2023-11-18T21:39:27.331Z,2.70
2023-11-18T21:41:53.832Z,4.78
2023-11-18T21:44:20.364Z,3.75
2023-11-18T21:46:47.328Z,2.30
2023-11-18T21:49:13.792Z,6.13
2023-11-18T21:51:40.292Z,3.30
2023-11-18T21:54:06.876Z,8.05
2023-11-18T21:56:36.339Z,4.22
2023-11-18T21:59:03.188Z,1.17
2023-11-18T22:01:30.900Z,4.20
2023-11-18T22:03:57.556Z,3.25
2023-11-18T22:06:24.506Z,2.55
2023-11-18T22:08:51.763Z,7.85
2023-11-18T22:11:18.278Z,2.78
2023-11-18T22:13:44.996Z,1.55
2023-11-18T22:16:11.511Z,1.30
2023-11-18T22:18:41.315Z,1.80
2023-11-18T22:21:20.418Z,1.17
2023-11-18T22:23:47.088Z,0.90
2023-11-18T22:26:13.582Z,0.90
2023-11-18T22:28:40.236Z,1.15
2023-11-18T22:31:06.895Z,0.20
2023-11-18T22:33:33.609Z,3.47
2023-11-18T22:36:00.280Z,0.40
2023-11-18T22:38:26.842Z,0.90
2023-11-18T22:40:56.039Z,0.60
2023-11-18T22:43:22.526Z,1.30
2023-11-18T22:45:49.184Z,0.22
2023-11-18T22:48:16.094Z,0.95
2023-11-18T22:50:42.839Z,0.98
2023-11-18T22:53:10.553Z,0.70
2023-11-18T22:55:37.221Z,1.38
2023-11-18T22:58:03.802Z,0.30
2023-11-18T23:00:30.273Z,0.25
2023-11-18T23:02:56.967Z,0.20
2023-11-18T23:05:23.715Z,0.38
2023-11-18T23:07:50.192Z,0.95
2023-11-18T23:10:17.312Z,1.52
2023-11-18T23:12:43.941Z,1.13
2023-11-18T23:15:10.565Z,0.45
2023-11-18T23:17:37.235Z,1.52
2023-11-18T23:20:04.222Z,2.42
2023-11-18T23:22:32.057Z,0.70
2023-11-18T23:24:58.681Z,1.45
2023-11-18T23:27:25.210Z,1.65
2023-11-18T23:29:51.775Z,1.30
2023-11-18T23:32:18.224Z,2.72
2023-11-18T23:34:44.714Z,1.13
2023-11-18T23:37:11.236Z,1.42
2023-11-18T23:39:37.947Z,1.48
2023-11-18T23:42:05.508Z,0.47
2023-11-18T23:44:34.336Z,0.80
2023-11-18T23:47:01.026Z,0.43
2023-11-18T23:49:27.921Z,0.77
2023-11-18T23:51:55.803Z,1.48
2023-11-18T23:54:22.619Z,0.20
2023-11-18T23:56:49.092Z,1.00
2023-11-18T23:59:15.568Z,0.47
